KAUM/AUM METAR and TAF weather

Enter ICAO airport designator
Station Type Date Time Source
KAUM METAR 2018/10/21 05:36 UTC NOAA

KAUM 210536Z AUTO 00000KT 10SM CLR M03/M07 A3034 RMK AO2


Station Type Date Time Source
KAUM Decoded METAR 2018/10/21 05:36 UTC NOAA

Austin Municipal, MN, United States (KAUM) 43-40N 092-56W
Oct 21, 2018 - 01:36 AM EDT / 2018.10.21 0536 UTC
Wind: Calm:0
Visibility: 10 mile(s):0
Sky conditions: clear
Temperature: 26 F (-3 C)
Dew Point: 19 F (-7 C)
Relative Humidity: 73%
Pressure (altimeter): 30.34 in. Hg (1027 hPa)
ob: KAUM 210536Z AUTO 00000KT 10SM CLR M03/M07 A3034 RMK AO2
cycle: 5

Station Type Date Time Source
KAUM TAF UTC NOAA

Error!


Example: see airport list